sensor_id;sensor_type;location;lat;lon;timestamp;temperature;humidity
21662;DHT22;10992;48.170;8.596;2024-02-26T00:02:17;5.00;99.90
21662;DHT22;10992;48.170;8.596;2024-02-26T00:04:44;5.10;99.90
21662;DHT22;10992;48.170;8.596;2024-02-26T00:07:11;5.10;99.90
21662;DHT22;10992;48.170;8.596;2024-02-26T00:09:38;5.10;99.90
21662;DHT22;10992;48.170;8.596;2024-02-26T00:12:05;5.00;99.90
21662;DHT22;10992;48.170;8.596;2024-02-26T00:14:32;5.00;99.90
21662;DHT22;10992;48.170;8.596;2024-02-26T00:17:00;5.00;99.90
21662;DHT22;10992;48.170;8.596;2024-02-26T00:19:27;4.90;99.90
21662;DHT22;10992;48.170;8.596;2024-02-26T00:21:54;4.80;99.90
21662;DHT22;10992;48.170;8.596;2024-02-26T00:24:22;4.80;99.90
21662;DHT22;10992;48.170;8.596;2024-02-26T00:26:49;4.90;99.90
21662;DHT22;10992;48.170;8.596;2024-02-26T00:29:20;5.00;99.90
21662;DHT22;10992;48.170;8.596;2024-02-26T00:31:47;5.10;99.90
21662;DHT22;10992;48.170;8.596;2024-02-26T00:34:14;5.00;99.90
21662;DHT22;10992;48.170;8.596;2024-02-26T00:36:41;5.00;99.90
21662;DHT22;10992;48.170;8.596;2024-02-26T00:39:08;4.90;99.90
21662;DHT22;10992;48.170;8.596;2024-02-26T00:41:41;4.80;99.90
21662;DHT22;10992;48.170;8.596;2024-02-26T00:44:08;4.80;99.90
21662;DHT22;10992;48.170;8.596;2024-02-26T00:46:35;4.70;99.90
21662;DHT22;10992;48.170;8.596;2024-02-26T00:49:02;4.70;99.90
21662;DHT22;10992;48.170;8.596;2024-02-26T00:51:30;4.60;99.90
21662;DHT22;10992;48.170;8.596;2024-02-26T00:53:57;4.60;99.90
21662;DHT22;10992;48.170;8.596;2024-02-26T00:56:24;4.50;99.90
21662;DHT22;10992;48.170;8.596;2024-02-26T00:58:51;4.50;99.90
21662;DHT22;10992;48.170;8.596;2024-02-26T01:01:18;4.50;99.90
21662;DHT22;10992;48.170;8.596;2024-02-26T01:03:45;4.50;99.90
21662;DHT22;10992;48.170;8.596;2024-02-26T01:06:11;4.50;99.90
21662;DHT22;10992;48.170;8.596;2024-02-26T01:08:38;4.50;99.90
21662;DHT22;10992;48.170;8.596;2024-02-26T01:11:06;4.50;99.90
21662;DHT22;10992;48.170;8.596;2024-02-26T01:13:33;4.50;99.90
21662;DHT22;10992;48.170;8.596;2024-02-26T01:16:00;4.50;99.90
21662;DHT22;10992;48.170;8.596;2024-02-26T01:18:28;4.50;99.90
21662;DHT22;10992;48.170;8.596;2024-02-26T01:20:55;4.50;99.90
21662;DHT22;10992;48.170;8.596;2024-02-26T01:23:22;4.60;99.90
21662;DHT22;10992;48.170;8.596;2024-02-26T01:25:49;4.50;99.90
21662;DHT22;10992;48.170;8.596;2024-02-26T01:28:16;4.50;99.90
21662;DHT22;10992;48.170;8.596;2024-02-26T01:30:43;4.40;99.90
21662;DHT22;10992;48.170;8.596;2024-02-26T01:33:10;4.40;99.90
21662;DHT22;10992;48.170;8.596;2024-02-26T01:35:37;4.30;99.90
21662;DHT22;10992;48.170;8.596;2024-02-26T01:38:05;4.30;99.90
21662;DHT22;10992;48.170;8.596;2024-02-26T01:40:32;4.30;99.90
21662;DHT22;10992;48.170;8.596;2024-02-26T01:42:59;4.30;99.90
21662;DHT22;10992;48.170;8.596;2024-02-26T01:45:27;4.40;99.90
21662;DHT22;10992;48.170;8.596;2024-02-26T01:47:55;4.40;99.90
21662;DHT22;10992;48.170;8.596;2024-02-26T01:50:23;4.50;99.90
21662;DHT22;10992;48.170;8.596;2024-02-26T01:52:51;4.50;99.90
21662;DHT22;10992;48.170;8.596;2024-02-26T01:55:19;4.50;99.90
21662;DHT22;10992;48.170;8.596;2024-02-26T01:57:49;4.50;99.90
21662;DHT22;10992;48.170;8.596;2024-02-26T02:00:18;4.50;99.90
21662;DHT22;10992;48.170;8.596;2024-02-26T02:02:47;4.80;99.90
21662;DHT22;10992;48.170;8.596;2024-02-26T02:05:16;5.10;99.90
21662;DHT22;10992;48.170;8.596;2024-02-26T02:07:46;5.40;99.90
21662;DHT22;10992;48.170;8.596;2024-02-26T02:10:17;5.60;99.90
21662;DHT22;10992;48.170;8.596;2024-02-26T02:12:52;5.60;99.90
21662;DHT22;10992;48.170;8.596;2024-02-26T02:15:20;5.60;99.90
21662;DHT22;10992;48.170;8.596;2024-02-26T02:17:47;5.40;99.90
21662;DHT22;10992;48.170;8.596;2024-02-26T02:20:15;5.30;99.90
21662;DHT22;10992;48.170;8.596;2024-02-26T02:22:44;5.20;99.90
21662;DHT22;10992;48.170;8.596;2024-02-26T02:25:11;5.00;99.90
21662;DHT22;10992;48.170;8.596;2024-02-26T02:27:39;4.90;99.90
21662;DHT22;10992;48.170;8.596;2024-02-26T02:30:07;4.90;99.90
21662;DHT22;10992;48.170;8.596;2024-02-26T02:32:37;4.90;99.90
21662;DHT22;10992;48.170;8.596;2024-02-26T02:35:05;4.90;99.90
21662;DHT22;10992;48.170;8.596;2024-02-26T02:37:32;4.90;99.90
21662;DHT22;10992;48.170;8.596;2024-02-26T02:39:59;4.70;99.90
21662;DHT22;10992;48.170;8.596;2024-02-26T02:42:26;4.70;99.90
21662;DHT22;10992;48.170;8.596;2024-02-26T02:44:53;4.50;99.90
21662;DHT22;10992;48.170;8.596;2024-02-26T02:47:20;4.40;99.90
21662;DHT22;10992;48.170;8.596;2024-02-26T02:49:47;4.30;99.90
21662;DHT22;10992;48.170;8.596;2024-02-26T02:52:14;4.10;99.90
21662;DHT22;10992;48.170;8.596;2024-02-26T02:54:41;4.10;99.90
21662;DHT22;10992;48.170;8.596;2024-02-26T02:57:09;4.00;99.90
21662;DHT22;10992;48.170;8.596;2024-02-26T02:59:37;4.00;99.90
21662;DHT22;10992;48.170;8.596;2024-02-26T03:02:04;4.00;99.90
21662;DHT22;10992;48.170;8.596;2024-02-26T03:04:31;4.00;99.90
21662;DHT22;10992;48.170;8.596;2024-02-26T03:06:58;4.00;99.90
21662;DHT22;10992;48.170;8.596;2024-02-26T03:09:27;4.00;99.90
21662;DHT22;10992;48.170;8.596;2024-02-26T03:11:54;4.00;99.90
21662;DHT22;10992;48.170;8.596;2024-02-26T03:14:21;4.00;99.90
21662;DHT22;10992;48.170;8.596;2024-02-26T03:16:47;4.00;99.90
21662;DHT22;10992;48.170;8.596;2024-02-26T03:19:15;4.10;99.90
21662;DHT22;10992;48.170;8.596;2024-02-26T03:21:45;4.10;99.90
21662;DHT22;10992;48.170;8.596;2024-02-26T03:24:12;4.10;99.90
21662;DHT22;10992;48.170;8.596;2024-02-26T03:26:38;4.10;99.90
21662;DHT22;10992;48.170;8.596;2024-02-26T03:29:05;4.10;99.90
21662;DHT22;10992;48.170;8.596;2024-02-26T03:31:32;4.10;99.90
21662;DHT22;10992;48.170;8.596;2024-02-26T03:33:59;4.10;99.90
21662;DHT22;10992;48.170;8.596;2024-02-26T03:36:26;4.00;99.90
21662;DHT22;10992;48.170;8.596;2024-02-26T03:38:53;4.00;99.90
21662;DHT22;10992;48.170;8.596;2024-02-26T03:41:20;3.90;99.90
21662;DHT22;10992;48.170;8.596;2024-02-26T03:43:47;3.90;99.90
21662;DHT22;10992;48.170;8.596;2024-02-26T03:46:14;3.90;99.90
21662;DHT22;10992;48.170;8.596;2024-02-26T03:48:41;3.90;99.90
21662;DHT22;10992;48.170;8.596;2024-02-26T03:51:09;3.90;99.90
21662;DHT22;10992;48.170;8.596;2024-02-26T03:53:37;3.90;99.90
21662;DHT22;10992;48.170;8.596;2024-02-26T03:56:05;3.80;99.90
21662;DHT22;10992;48.170;8.596;2024-02-26T03:58:32;3.80;99.90
21662;DHT22;10992;48.170;8.596;2024-02-26T04:01:00;3.80;99.90
21662;DHT22;10992;48.170;8.596;2024-02-26T04:03:27;3.80;99.90
21662;DHT22;10992;48.170;8.596;2024-02-26T04:05:54;3.80;99.90
21662;DHT22;10992;48.170;8.596;2024-02-26T04:08:21;3.80;99.90
21662;DHT22;10992;48.170;8.596;2024-02-26T04:10:49;3.90;99.90
21662;DHT22;10992;48.170;8.596;2024-02-26T04:13:17;3.90;99.90
21662;DHT22;10992;48.170;8.596;2024-02-26T04:15:44;4.00;99.90
21662;DHT22;10992;48.170;8.596;2024-02-26T04:18:11;4.00;99.90
21662;DHT22;10992;48.170;8.596;2024-02-26T04:20:38;4.00;99.90
21662;DHT22;10992;48.170;8.596;2024-02-26T04:23:05;4.00;99.90
21662;DHT22;10992;48.170;8.596;2024-02-26T04:25:32;3.90;99.90
21662;DHT22;10992;48.170;8.596;2024-02-26T04:27:58;3.90;99.90
21662;DHT22;10992;48.170;8.596;2024-02-26T04:30:25;4.00;99.90
21662;DHT22;10992;48.170;8.596;2024-02-26T04:32:52;4.00;99.90
21662;DHT22;10992;48.170;8.596;2024-02-26T04:35:19;4.00;99.90
21662;DHT22;10992;48.170;8.596;2024-02-26T04:37:46;4.00;99.90
21662;DHT22;10992;48.170;8.596;2024-02-26T04:40:13;4.00;99.90
21662;DHT22;10992;48.170;8.596;2024-02-26T04:42:40;4.00;99.90
21662;DHT22;10992;48.170;8.596;2024-02-26T04:45:07;4.00;99.90
21662;DHT22;10992;48.170;8.596;2024-02-26T04:47:35;4.00;99.90
21662;DHT22;10992;48.170;8.596;2024-02-26T04:50:02;3.90;99.90
21662;DHT22;10992;48.170;8.596;2024-02-26T04:52:29;3.90;99.90
21662;DHT22;10992;48.170;8.596;2024-02-26T04:54:55;3.90;99.90
21662;DHT22;10992;48.170;8.596;2024-02-26T04:57:22;3.80;99.90
21662;DHT22;10992;48.170;8.596;2024-02-26T04:59:49;3.80;99.90
21662;DHT22;10992;48.170;8.596;2024-02-26T05:02:16;3.70;99.90
21662;DHT22;10992;48.170;8.596;2024-02-26T05:04:43;3.60;99.90
21662;DHT22;10992;48.170;8.596;2024-02-26T05:07:10;3.60;99.90
21662;DHT22;10992;48.170;8.596;2024-02-26T05:09:40;3.60;99.90
21662;DHT22;10992;48.170;8.596;2024-02-26T05:12:09;3.70;99.90
21662;DHT22;10992;48.170;8.596;2024-02-26T05:14:36;3.60;99.90
21662;DHT22;10992;48.170;8.596;2024-02-26T05:17:03;3.60;99.90
21662;DHT22;10992;48.170;8.596;2024-02-26T05:19:30;3.60;99.90
21662;DHT22;10992;48.170;8.596;2024-02-26T05:21:57;3.60;99.90
21662;DHT22;10992;48.170;8.596;2024-02-26T05:24:24;3.60;99.90
21662;DHT22;10992;48.170;8.596;2024-02-26T05:26:51;3.50;99.90
21662;DHT22;10992;48.170;8.596;2024-02-26T05:29:17;3.50;99.90
21662;DHT22;10992;48.170;8.596;2024-02-26T05:31:44;3.50;99.90
21662;DHT22;10992;48.170;8.596;2024-02-26T05:34:11;3.50;99.90
21662;DHT22;10992;48.170;8.596;2024-02-26T05:36:38;3.50;99.90
21662;DHT22;10992;48.170;8.596;2024-02-26T05:39:05;3.50;99.90
21662;DHT22;10992;48.170;8.596;2024-02-26T05:41:32;3.50;99.90
21662;DHT22;10992;48.170;8.596;2024-02-26T05:43:59;3.60;99.90
21662;DHT22;10992;48.170;8.596;2024-02-26T05:46:26;3.60;99.90
21662;DHT22;10992;48.170;8.596;2024-02-26T05:48:54;3.50;99.90
21662;DHT22;10992;48.170;8.596;2024-02-26T05:51:21;3.60;99.90
21662;DHT22;10992;48.170;8.596;2024-02-26T05:53:48;3.60;99.90
21662;DHT22;10992;48.170;8.596;2024-02-26T05:56:24;3.60;99.90
21662;DHT22;10992;48.170;8.596;2024-02-26T05:58:51;3.70;99.90
21662;DHT22;10992;48.170;8.596;2024-02-26T06:01:19;3.70;99.90
21662;DHT22;10992;48.170;8.596;2024-02-26T06:03:46;3.80;99.90
21662;DHT22;10992;48.170;8.596;2024-02-26T06:06:13;3.80;99.90
21662;DHT22;10992;48.170;8.596;2024-02-26T06:08:42;3.80;99.90
21662;DHT22;10992;48.170;8.596;2024-02-26T06:11:09;3.90;99.90
21662;DHT22;10992;48.170;8.596;2024-02-26T06:13:36;3.90;99.90
21662;DHT22;10992;48.170;8.596;2024-02-26T06:16:03;3.90;99.90
21662;DHT22;10992;48.170;8.596;2024-02-26T06:18:30;3.90;99.90
21662;DHT22;10992;48.170;8.596;2024-02-26T06:20:57;3.90;99.90
21662;DHT22;10992;48.170;8.596;2024-02-26T06:23:24;3.90;99.90
21662;DHT22;10992;48.170;8.596;2024-02-26T06:25:52;3.90;99.90
21662;DHT22;10992;48.170;8.596;2024-02-26T06:28:19;3.90;99.90
21662;DHT22;10992;48.170;8.596;2024-02-26T06:30:46;3.90;99.90
21662;DHT22;10992;48.170;8.596;2024-02-26T06:33:13;4.00;99.90
21662;DHT22;10992;48.170;8.596;2024-02-26T06:35:41;4.30;99.90
21662;DHT22;10992;48.170;8.596;2024-02-26T06:38:09;4.30;99.90
21662;DHT22;10992;48.170;8.596;2024-02-26T06:40:36;4.50;99.90
21662;DHT22;10992;48.170;8.596;2024-02-26T06:43:03;4.70;99.90
21662;DHT22;10992;48.170;8.596;2024-02-26T06:45:30;4.80;99.90
21662;DHT22;10992;48.170;8.596;2024-02-26T06:47:57;4.60;99.90
21662;DHT22;10992;48.170;8.596;2024-02-26T06:50:25;4.50;99.90
21662;DHT22;10992;48.170;8.596;2024-02-26T06:52:51;4.30;99.90
21662;DHT22;10992;48.170;8.596;2024-02-26T06:55:18;4.20;99.90
21662;DHT22;10992;48.170;8.596;2024-02-26T06:57:45;4.10;99.90
21662;DHT22;10992;48.170;8.596;2024-02-26T07:00:12;4.00;99.90
21662;DHT22;10992;48.170;8.596;2024-02-26T07:02:43;4.00;99.90
21662;DHT22;10992;48.170;8.596;2024-02-26T07:05:10;4.00;99.90
21662;DHT22;10992;48.170;8.596;2024-02-26T07:07:37;4.00;99.90
21662;DHT22;10992;48.170;8.596;2024-02-26T07:10:04;4.00;99.90
21662;DHT22;10992;48.170;8.596;2024-02-26T07:12:32;3.90;99.90
21662;DHT22;10992;48.170;8.596;2024-02-26T07:15:00;4.00;99.90
21662;DHT22;10992;48.170;8.596;2024-02-26T07:17:28;4.00;99.90
21662;DHT22;10992;48.170;8.596;2024-02-26T07:19:55;4.00;99.90
21662;DHT22;10992;48.170;8.596;2024-02-26T07:22:22;4.00;99.90
21662;DHT22;10992;48.170;8.596;2024-02-26T07:24:51;4.10;99.90
21662;DHT22;10992;48.170;8.596;2024-02-26T07:27:18;4.30;99.90
21662;DHT22;10992;48.170;8.596;2024-02-26T07:29:45;4.30;99.90
21662;DHT22;10992;48.170;8.596;2024-02-26T07:32:13;4.30;99.90
21662;DHT22;10992;48.170;8.596;2024-02-26T07:34:40;4.30;99.90
21662;DHT22;10992;48.170;8.596;2024-02-26T07:37:11;4.40;99.90
21662;DHT22;10992;48.170;8.596;2024-02-26T07:39:38;4.40;99.90
21662;DHT22;10992;48.170;8.596;2024-02-26T07:42:05;4.40;99.90
21662;DHT22;10992;48.170;8.596;2024-02-26T07:44:33;4.50;99.90
21662;DHT22;10992;48.170;8.596;2024-02-26T07:47:00;4.60;99.90
21662;DHT22;10992;48.170;8.596;2024-02-26T07:49:27;4.60;99.90
21662;DHT22;10992;48.170;8.596;2024-02-26T07:51:54;4.60;99.90
21662;DHT22;10992;48.170;8.596;2024-02-26T07:54:21;4.80;99.90
21662;DHT22;10992;48.170;8.596;2024-02-26T07:56:48;4.90;99.90
21662;DHT22;10992;48.170;8.596;2024-02-26T07:59:15;5.00;99.90
21662;DHT22;10992;48.170;8.596;2024-02-26T08:01:42;5.10;99.90
21662;DHT22;10992;48.170;8.596;2024-02-26T08:04:12;5.20;99.90
21662;DHT22;10992;48.170;8.596;2024-02-26T08:06:38;5.30;99.90
21662;DHT22;10992;48.170;8.596;2024-02-26T08:09:05;5.50;99.90
21662;DHT22;10992;48.170;8.596;2024-02-26T08:11:33;5.60;99.90
21662;DHT22;10992;48.170;8.596;2024-02-26T08:14:00;5.70;99.90
21662;DHT22;10992;48.170;8.596;2024-02-26T08:16:27;5.70;99.90
21662;DHT22;10992;48.170;8.596;2024-02-26T08:18:54;5.50;99.90
21662;DHT22;10992;48.170;8.596;2024-02-26T08:21:21;5.50;99.90
21662;DHT22;10992;48.170;8.596;2024-02-26T08:23:48;5.40;99.90
21662;DHT22;10992;48.170;8.596;2024-02-26T08:26:15;5.30;99.90
21662;DHT22;10992;48.170;8.596;2024-02-26T08:28:42;5.30;99.90
21662;DHT22;10992;48.170;8.596;2024-02-26T08:31:10;5.20;99.90
21662;DHT22;10992;48.170;8.596;2024-02-26T08:33:37;5.30;99.90
21662;DHT22;10992;48.170;8.596;2024-02-26T08:36:05;5.20;99.90
21662;DHT22;10992;48.170;8.596;2024-02-26T08:38:32;5.20;99.90
21662;DHT22;10992;48.170;8.596;2024-02-26T08:41:04;5.10;99.90
21662;DHT22;10992;48.170;8.596;2024-02-26T08:43:31;5.10;99.90
21662;DHT22;10992;48.170;8.596;2024-02-26T08:45:58;5.30;99.90
21662;DHT22;10992;48.170;8.596;2024-02-26T08:48:25;5.40;99.90
21662;DHT22;10992;48.170;8.596;2024-02-26T08:50:52;5.50;99.90
21662;DHT22;10992;48.170;8.596;2024-02-26T08:53:20;5.60;99.90
21662;DHT22;10992;48.170;8.596;2024-02-26T08:55:57;5.60;99.90
21662;DHT22;10992;48.170;8.596;2024-02-26T08:58:24;5.90;99.90
21662;DHT22;10992;48.170;8.596;2024-02-26T09:00:51;6.10;99.90
21662;DHT22;10992;48.170;8.596;2024-02-26T09:03:17;6.20;99.90
21662;DHT22;10992;48.170;8.596;2024-02-26T09:05:44;6.70;99.90
21662;DHT22;10992;48.170;8.596;2024-02-26T09:08:11;7.30;99.90
21662;DHT22;10992;48.170;8.596;2024-02-26T09:10:39;7.70;99.90
21662;DHT22;10992;48.170;8.596;2024-02-26T09:13:06;8.10;99.90
21662;DHT22;10992;48.170;8.596;2024-02-26T09:15:33;8.20;99.90
21662;DHT22;10992;48.170;8.596;2024-02-26T09:17:59;8.30;99.90
21662;DHT22;10992;48.170;8.596;2024-02-26T09:20:27;8.10;99.90
21662;DHT22;10992;48.170;8.596;2024-02-26T09:22:53;8.20;99.90
21662;DHT22;10992;48.170;8.596;2024-02-26T09:25:21;8.00;99.90
21662;DHT22;10992;48.170;8.596;2024-02-26T09:27:48;7.80;99.90
21662;DHT22;10992;48.170;8.596;2024-02-26T09:30:15;7.80;99.90
21662;DHT22;10992;48.170;8.596;2024-02-26T09:32:46;7.90;99.90
21662;DHT22;10992;48.170;8.596;2024-02-26T09:35:13;8.10;99.90
21662;DHT22;10992;48.170;8.596;2024-02-26T09:37:40;8.30;99.90
21662;DHT22;10992;48.170;8.596;2024-02-26T09:40:10;8.30;99.90
21662;DHT22;10992;48.170;8.596;2024-02-26T09:42:43;8.50;99.90
21662;DHT22;10992;48.170;8.596;2024-02-26T09:45:15;8.90;99.90
21662;DHT22;10992;48.170;8.596;2024-02-26T09:47:44;8.90;99.90
21662;DHT22;10992;48.170;8.596;2024-02-26T09:50:12;8.80;99.90
21662;DHT22;10992;48.170;8.596;2024-02-26T09:52:41;8.60;99.90
21662;DHT22;10992;48.170;8.596;2024-02-26T09:55:09;8.70;99.90
21662;DHT22;10992;48.170;8.596;2024-02-26T09:57:37;8.80;99.90
21662;DHT22;10992;48.170;8.596;2024-02-26T10:00:09;8.70;99.90
21662;DHT22;10992;48.170;8.596;2024-02-26T10:02:38;8.50;99.90
21662;DHT22;10992;48.170;8.596;2024-02-26T10:05:07;8.30;99.90
21662;DHT22;10992;48.170;8.596;2024-02-26T10:07:37;8.50;99.90
21662;DHT22;10992;48.170;8.596;2024-02-26T10:10:04;8.50;99.90
21662;DHT22;10992;48.170;8.596;2024-02-26T10:12:33;8.70;99.90
21662;DHT22;10992;48.170;8.596;2024-02-26T10:14:59;8.70;99.90
21662;DHT22;10992;48.170;8.596;2024-02-26T10:17:27;8.80;99.90
21662;DHT22;10992;48.170;8.596;2024-02-26T10:19:54;9.00;99.90
21662;DHT22;10992;48.170;8.596;2024-02-26T10:22:23;8.80;99.90
21662;DHT22;10992;48.170;8.596;2024-02-26T10:24:50;9.00;99.90
21662;DHT22;10992;48.170;8.596;2024-02-26T10:27:17;9.10;99.90
21662;DHT22;10992;48.170;8.596;2024-02-26T10:29:45;9.40;99.90
21662;DHT22;10992;48.170;8.596;2024-02-26T10:32:13;9.60;99.90
21662;DHT22;10992;48.170;8.596;2024-02-26T10:34:40;9.90;99.90
21662;DHT22;10992;48.170;8.596;2024-02-26T10:37:09;9.80;99.90
21662;DHT22;10992;48.170;8.596;2024-02-26T10:39:36;9.70;99.90
21662;DHT22;10992;48.170;8.596;2024-02-26T10:42:05;9.90;99.90
21662;DHT22;10992;48.170;8.596;2024-02-26T10:44:36;10.60;99.90
21662;DHT22;10992;48.170;8.596;2024-02-26T10:47:03;10.50;99.90
21662;DHT22;10992;48.170;8.596;2024-02-26T10:49:30;10.70;99.90
21662;DHT22;10992;48.170;8.596;2024-02-26T10:51:58;10.80;99.90
21662;DHT22;10992;48.170;8.596;2024-02-26T10:54:26;11.00;99.90
21662;DHT22;10992;48.170;8.596;2024-02-26T10:56:56;10.80;99.90
21662;DHT22;10992;48.170;8.596;2024-02-26T10:59:25;10.70;99.90
21662;DHT22;10992;48.170;8.596;2024-02-26T11:01:54;10.70;99.90
21662;DHT22;10992;48.170;8.596;2024-02-26T11:04:23;11.00;99.90
21662;DHT22;10992;48.170;8.596;2024-02-26T11:06:54;11.00;99.90
21662;DHT22;10992;48.170;8.596;2024-02-26T11:09:23;11.10;99.90
21662;DHT22;10992;48.170;8.596;2024-02-26T11:11:51;11.70;99.90
21662;DHT22;10992;48.170;8.596;2024-02-26T11:14:21;12.10;99.90
21662;DHT22;10992;48.170;8.596;2024-02-26T11:16:54;12.40;99.90
21662;DHT22;10992;48.170;8.596;2024-02-26T11:19:22;12.90;99.90
21662;DHT22;10992;48.170;8.596;2024-02-26T11:21:51;12.90;99.90
21662;DHT22;10992;48.170;8.596;2024-02-26T11:24:18;12.90;99.90
21662;DHT22;10992;48.170;8.596;2024-02-26T11:26:50;12.80;99.90
21662;DHT22;10992;48.170;8.596;2024-02-26T11:29:28;12.40;99.90
21662;DHT22;10992;48.170;8.596;2024-02-26T11:31:55;12.30;99.90
21662;DHT22;10992;48.170;8.596;2024-02-26T11:34:22;12.30;99.90
21662;DHT22;10992;48.170;8.596;2024-02-26T11:36:51;12.60;99.90
21662;DHT22;10992;48.170;8.596;2024-02-26T11:39:17;12.70;99.90
21662;DHT22;10992;48.170;8.596;2024-02-26T11:41:44;12.90;99.90
21662;DHT22;10992;48.170;8.596;2024-02-26T11:44:11;12.80;99.90
21662;DHT22;10992;48.170;8.596;2024-02-26T11:46:42;12.60;99.90
21662;DHT22;10992;48.170;8.596;2024-02-26T11:49:29;12.80;99.90
21662;DHT22;10992;48.170;8.596;2024-02-26T11:51:58;12.80;99.90
21662;DHT22;10992;48.170;8.596;2024-02-26T11:59:56;12.30;99.90
21662;DHT22;10992;48.170;8.596;2024-02-26T12:08:08;12.00;99.90
21662;DHT22;10992;48.170;8.596;2024-02-26T12:10:37;11.90;99.90
21662;DHT22;10992;48.170;8.596;2024-02-26T12:13:10;11.50;99.90
21662;DHT22;10992;48.170;8.596;2024-02-26T12:15:56;11.30;99.90
21662;DHT22;10992;48.170;8.596;2024-02-26T12:18:25;11.60;99.90
21662;DHT22;10992;48.170;8.596;2024-02-26T12:21:02;12.10;99.90
21662;DHT22;10992;48.170;8.596;2024-02-26T12:23:30;12.00;99.90
21662;DHT22;10992;48.170;8.596;2024-02-26T12:26:01;12.60;99.90
21662;DHT22;10992;48.170;8.596;2024-02-26T12:28:33;12.90;99.90
21662;DHT22;10992;48.170;8.596;2024-02-26T12:31:00;13.30;99.90
21662;DHT22;10992;48.170;8.596;2024-02-26T12:33:28;13.30;99.90
21662;DHT22;10992;48.170;8.596;2024-02-26T12:35:56;13.10;99.90
21662;DHT22;10992;48.170;8.596;2024-02-26T12:38:23;13.00;99.90
21662;DHT22;10992;48.170;8.596;2024-02-26T12:40:50;12.80;99.90
21662;DHT22;10992;48.170;8.596;2024-02-26T12:43:17;12.40;99.90
21662;DHT22;10992;48.170;8.596;2024-02-26T12:45:44;11.90;99.90
21662;DHT22;10992;48.170;8.596;2024-02-26T12:48:14;11.70;99.90
21662;DHT22;10992;48.170;8.596;2024-02-26T12:50:45;11.60;99.90
21662;DHT22;10992;48.170;8.596;2024-02-26T12:53:14;11.50;99.90
21662;DHT22;10992;48.170;8.596;2024-02-26T12:55:42;11.80;99.90
21662;DHT22;10992;48.170;8.596;2024-02-26T12:58:10;11.90;99.90
21662;DHT22;10992;48.170;8.596;2024-02-26T13:00:37;11.70;99.90
21662;DHT22;10992;48.170;8.596;2024-02-26T13:03:05;12.00;99.90
21662;DHT22;10992;48.170;8.596;2024-02-26T13:05:33;12.20;99.90
21662;DHT22;10992;48.170;8.596;2024-02-26T13:08:00;12.30;99.90
21662;DHT22;10992;48.170;8.596;2024-02-26T13:10:29;12.40;99.90
21662;DHT22;10992;48.170;8.596;2024-02-26T13:12:58;12.90;99.90
21662;DHT22;10992;48.170;8.596;2024-02-26T13:15:29;13.40;99.90
21662;DHT22;10992;48.170;8.596;2024-02-26T13:17:56;13.50;99.90
21662;DHT22;10992;48.170;8.596;2024-02-26T13:20:27;13.90;99.90
21662;DHT22;10992;48.170;8.596;2024-02-26T13:23:05;14.00;99.90
21662;DHT22;10992;48.170;8.596;2024-02-26T13:25:34;13.70;99.90
21662;DHT22;10992;48.170;8.596;2024-02-26T13:28:09;13.40;99.90
21662;DHT22;10992;48.170;8.596;2024-02-26T13:30:39;13.40;99.90
21662;DHT22;10992;48.170;8.596;2024-02-26T13:33:12;13.40;99.90
21662;DHT22;10992;48.170;8.596;2024-02-26T13:35:40;13.30;99.90
21662;DHT22;10992;48.170;8.596;2024-02-26T13:38:07;13.10;99.90
21662;DHT22;10992;48.170;8.596;2024-02-26T13:40:35;13.10;99.90
21662;DHT22;10992;48.170;8.596;2024-02-26T13:43:02;13.30;99.90
21662;DHT22;10992;48.170;8.596;2024-02-26T13:45:29;13.40;99.90
21662;DHT22;10992;48.170;8.596;2024-02-26T13:48:05;13.50;99.90
21662;DHT22;10992;48.170;8.596;2024-02-26T13:50:32;13.70;99.90
21662;DHT22;10992;48.170;8.596;2024-02-26T13:52:59;13.90;99.90
21662;DHT22;10992;48.170;8.596;2024-02-26T13:55:26;13.90;99.90
21662;DHT22;10992;48.170;8.596;2024-02-26T13:57:56;14.00;99.90
21662;DHT22;10992;48.170;8.596;2024-02-26T14:00:23;13.90;99.90
21662;DHT22;10992;48.170;8.596;2024-02-26T14:02:51;13.70;99.90
21662;DHT22;10992;48.170;8.596;2024-02-26T14:05:18;13.50;99.90
21662;DHT22;10992;48.170;8.596;2024-02-26T14:07:45;13.40;99.90
21662;DHT22;10992;48.170;8.596;2024-02-26T14:10:17;13.40;99.90
21662;DHT22;10992;48.170;8.596;2024-02-26T14:12:44;13.20;99.90
21662;DHT22;10992;48.170;8.596;2024-02-26T14:15:11;13.10;99.90
21662;DHT22;10992;48.170;8.596;2024-02-26T14:17:38;12.70;99.90
21662;DHT22;10992;48.170;8.596;2024-02-26T14:20:05;12.30;99.90
21662;DHT22;10992;48.170;8.596;2024-02-26T14:22:34;12.10;99.90
21662;DHT22;10992;48.170;8.596;2024-02-26T14:25:04;12.00;99.90
21662;DHT22;10992;48.170;8.596;2024-02-26T14:27:31;11.90;99.90
21662;DHT22;10992;48.170;8.596;2024-02-26T14:29:58;11.90;99.90
21662;DHT22;10992;48.170;8.596;2024-02-26T14:32:25;11.90;99.90
21662;DHT22;10992;48.170;8.596;2024-02-26T14:34:52;11.80;99.90
21662;DHT22;10992;48.170;8.596;2024-02-26T14:37:19;11.80;99.90
21662;DHT22;10992;48.170;8.596;2024-02-26T14:39:46;11.90;99.90
21662;DHT22;10992;48.170;8.596;2024-02-26T14:42:14;11.70;99.90
21662;DHT22;10992;48.170;8.596;2024-02-26T14:44:44;11.80;99.90
21662;DHT22;10992;48.170;8.596;2024-02-26T14:47:13;11.80;99.90
21662;DHT22;10992;48.170;8.596;2024-02-26T14:49:40;11.70;99.90
21662;DHT22;10992;48.170;8.596;2024-02-26T14:52:07;11.70;99.90
21662;DHT22;10992;48.170;8.596;2024-02-26T14:54:34;11.50;99.90
21662;DHT22;10992;48.170;8.596;2024-02-26T14:57:06;11.40;99.90
21662;DHT22;10992;48.170;8.596;2024-02-26T14:59:33;11.20;99.90
21662;DHT22;10992;48.170;8.596;2024-02-26T15:02:00;11.10;99.90
21662;DHT22;10992;48.170;8.596;2024-02-26T15:04:28;11.00;99.90
21662;DHT22;10992;48.170;8.596;2024-02-26T15:06:55;10.90;99.90
21662;DHT22;10992;48.170;8.596;2024-02-26T15:09:22;10.80;99.90
21662;DHT22;10992;48.170;8.596;2024-02-26T15:11:49;10.70;99.90
21662;DHT22;10992;48.170;8.596;2024-02-26T15:14:15;10.50;99.90
21662;DHT22;10992;48.170;8.596;2024-02-26T15:16:42;10.50;99.90
21662;DHT22;10992;48.170;8.596;2024-02-26T15:19:09;10.30;99.90
21662;DHT22;10992;48.170;8.596;2024-02-26T15:21:46;10.30;99.90
21662;DHT22;10992;48.170;8.596;2024-02-26T15:24:13;10.20;99.90
21662;DHT22;10992;48.170;8.596;2024-02-26T15:26:43;10.20;99.90
21662;DHT22;10992;48.170;8.596;2024-02-26T15:29:10;10.10;99.90
21662;DHT22;10992;48.170;8.596;2024-02-26T15:31:37;10.10;99.90
21662;DHT22;10992;48.170;8.596;2024-02-26T15:34:04;10.10;99.90
21662;DHT22;10992;48.170;8.596;2024-02-26T15:36:31;10.10;99.90
21662;DHT22;10992;48.170;8.596;2024-02-26T15:38:58;10.10;99.90
21662;DHT22;10992;48.170;8.596;2024-02-26T15:41:25;10.10;99.90
21662;DHT22;10992;48.170;8.596;2024-02-26T15:43:52;10.00;99.90
21662;DHT22;10992;48.170;8.596;2024-02-26T15:46:19;10.00;99.90
21662;DHT22;10992;48.170;8.596;2024-02-26T15:48:46;9.90;99.90
21662;DHT22;10992;48.170;8.596;2024-02-26T15:51:23;9.90;99.90
21662;DHT22;10992;48.170;8.596;2024-02-26T15:53:53;9.80;99.90
21662;DHT22;10992;48.170;8.596;2024-02-26T15:56:21;9.80;99.90
21662;DHT22;10992;48.170;8.596;2024-02-26T15:58:51;9.80;99.90